createdAt,value
2018-05-07T00:01:53.272Z,2.40
2018-05-07T00:04:21.429Z,1.83
2018-05-07T00:06:49.603Z,1.90
2018-05-07T00:09:17.809Z,1.70
2018-05-07T00:11:46.015Z,2.28
2018-05-07T00:14:14.137Z,2.42
2018-05-07T00:16:42.288Z,2.10
2018-05-07T00:19:10.552Z,1.80
2018-05-07T00:21:38.718Z,2.10
2018-05-07T00:24:06.895Z,2.30
2018-05-07T00:26:35.846Z,2.60
2018-05-07T00:29:05.641Z,2.50
2018-05-07T00:31:33.851Z,2.30
2018-05-07T00:34:02.759Z,1.85
2018-05-07T00:36:30.917Z,1.95
2018-05-07T00:38:59.059Z,2.33
2018-05-07T00:41:27.211Z,1.73
2018-05-07T00:43:55.392Z,1.70
2018-05-07T00:46:23.580Z,1.87
2018-05-07T00:48:51.716Z,1.60
2018-05-07T00:51:19.866Z,2.90
2018-05-07T00:53:48.026Z,2.83
2018-05-07T00:56:16.198Z,1.90
2018-05-07T00:58:44.337Z,1.65
2018-05-07T01:01:12.786Z,2.00
2018-05-07T01:03:40.945Z,2.22
2018-05-07T01:06:09.122Z,2.55
2018-05-07T01:08:37.288Z,2.03
2018-05-07T01:11:05.456Z,2.10
2018-05-07T01:13:34.565Z,2.25
2018-05-07T01:16:02.739Z,2.10
2018-05-07T01:18:30.925Z,1.92
2018-05-07T01:20:59.091Z,2.08
2018-05-07T01:23:27.254Z,2.12
2018-05-07T01:25:56.532Z,2.78
2018-05-07T01:28:25.466Z,3.15
2018-05-07T01:30:53.631Z,2.47
2018-05-07T01:33:21.797Z,2.33
2018-05-07T01:35:50.048Z,1.90
2018-05-07T01:38:18.979Z,2.53
2018-05-07T01:40:47.130Z,2.20
2018-05-07T01:43:15.292Z,1.95
2018-05-07T01:45:43.467Z,2.17
2018-05-07T01:48:12.387Z,2.78
2018-05-07T01:50:40.647Z,1.98
2018-05-07T01:53:09.764Z,2.60
2018-05-07T01:55:37.944Z,3.10
2018-05-07T01:58:06.110Z,2.45
2018-05-07T02:00:35.229Z,2.42
2018-05-07T02:03:04.181Z,2.17
2018-05-07T02:05:32.433Z,2.05
2018-05-07T02:08:00.593Z,2.92
2018-05-07T02:10:28.768Z,2.50
2018-05-07T02:12:56.940Z,1.75
2018-05-07T02:15:25.100Z,3.10
2018-05-07T02:17:54.017Z,2.70
2018-05-07T02:20:23.172Z,3.10
2018-05-07T02:22:52.085Z,2.25
2018-05-07T02:25:20.246Z,1.98
2018-05-07T02:27:48.397Z,2.00
2018-05-07T02:30:17.441Z,2.45
2018-05-07T02:32:45.543Z,2.25
2018-05-07T02:35:13.686Z,2.75
2018-05-07T02:37:41.852Z,2.78
2018-05-07T02:40:10.067Z,3.03
2018-05-07T02:42:38.253Z,2.60
2018-05-07T02:45:06.407Z,3.00
2018-05-07T02:47:34.597Z,2.50
2018-05-07T02:50:04.899Z,2.70
2018-05-07T02:52:33.826Z,2.65
2018-05-07T02:55:03.481Z,2.60
2018-05-07T02:57:31.654Z,2.42
2018-05-07T02:59:59.815Z,2.50
2018-05-07T03:02:28.001Z,2.50
2018-05-07T03:04:56.168Z,2.08
2018-05-07T03:07:24.327Z,2.35
2018-05-07T03:09:52.473Z,2.55
2018-05-07T03:12:20.618Z,2.92
2018-05-07T03:14:49.527Z,2.80
2018-05-07T03:17:17.978Z,2.55
2018-05-07T03:19:46.997Z,2.37
2018-05-07T03:22:15.180Z,2.35
2018-05-07T03:24:43.392Z,2.45
2018-05-07T03:27:11.529Z,3.08
2018-05-07T03:29:39.687Z,2.92
2018-05-07T03:32:07.834Z,2.37
2018-05-07T03:34:35.984Z,2.28
2018-05-07T03:37:04.160Z,2.70
2018-05-07T03:39:32.384Z,2.20
2018-05-07T03:42:00.532Z,2.20
2018-05-07T03:44:28.676Z,1.95
2018-05-07T03:46:56.817Z,2.33
2018-05-07T03:49:25.068Z,2.30
2018-05-07T03:51:53.988Z,1.75
2018-05-07T03:54:22.151Z,2.40
2018-05-07T03:56:50.301Z,2.70
2018-05-07T03:59:18.893Z,2.40
2018-05-07T04:01:47.827Z,2.60
2018-05-07T04:04:16.010Z,2.40
2018-05-07T04:06:44.161Z,2.83
2018-05-07T04:09:12.332Z,2.47
2018-05-07T04:11:40.509Z,3.10
2018-05-07T04:14:08.669Z,2.65
2018-05-07T04:16:48.568Z,2.15
2018-05-07T04:19:28.544Z,3.10
2018-05-07T04:22:08.428Z,2.50
2018-05-07T04:24:36.587Z,3.00
2018-05-07T04:27:04.762Z,2.60
2018-05-07T04:29:34.997Z,2.50
2018-05-07T04:32:03.171Z,3.20
2018-05-07T04:34:31.336Z,2.70
2018-05-07T04:36:59.512Z,2.90
2018-05-07T04:39:29.732Z,4.05
2018-05-07T04:41:57.896Z,3.08
2018-05-07T04:44:26.834Z,2.85
2018-05-07T04:46:54.973Z,3.20
2018-05-07T04:49:23.249Z,3.10
2018-05-07T04:51:51.815Z,2.60
2018-05-07T04:54:20.749Z,3.03
2018-05-07T04:56:48.899Z,3.70
2018-05-07T04:59:17.211Z,2.75
2018-05-07T05:01:45.373Z,3.00
2018-05-07T05:04:13.967Z,3.22
2018-05-07T05:06:42.131Z,3.20
2018-05-07T05:09:10.314Z,2.80
2018-05-07T05:11:38.477Z,3.30
2018-05-07T05:14:07.053Z,2.70
2018-05-07T05:16:35.632Z,3.70
2018-05-07T05:19:03.799Z,3.40
2018-05-07T05:21:32.401Z,2.97
2018-05-07T05:24:01.300Z,3.15
2018-05-07T05:26:29.914Z,3.20
2018-05-07T05:28:58.168Z,3.47
2018-05-07T05:31:26.476Z,3.95
2018-05-07T05:33:54.665Z,4.15
2018-05-07T05:36:23.590Z,3.50
2018-05-07T05:38:52.464Z,3.47
2018-05-07T05:41:20.616Z,2.95
2018-05-07T05:43:49.572Z,2.83
2018-05-07T05:46:17.699Z,3.05
2018-05-07T05:48:45.868Z,3.90
2018-05-07T05:51:14.799Z,3.35
2018-05-07T05:53:42.967Z,3.15
2018-05-07T05:56:11.181Z,3.80
2018-05-07T05:58:39.357Z,3.33
2018-05-07T06:01:07.581Z,2.97
2018-05-07T06:03:35.746Z,3.58
2018-05-07T06:06:04.300Z,3.17
2018-05-07T06:08:32.498Z,3.92
2018-05-07T06:11:00.699Z,3.12
2018-05-07T06:13:28.846Z,2.95
2018-05-07T06:15:57.019Z,2.87
2018-05-07T06:18:25.208Z,3.45
2018-05-07T06:20:53.372Z,2.70
2018-05-07T06:23:22.477Z,2.65
2018-05-07T06:25:50.633Z,3.37
2018-05-07T06:28:19.551Z,3.05
2018-05-07T06:30:48.915Z,2.80
2018-05-07T06:33:18.091Z,3.00
2018-05-07T06:35:46.239Z,3.58
2018-05-07T06:38:14.484Z,3.37
2018-05-07T06:40:42.877Z,2.45
2018-05-07T06:43:11.712Z,2.80
2018-05-07T06:45:39.874Z,3.25
2018-05-07T06:48:08.039Z,2.97
2018-05-07T06:50:36.201Z,3.10
2018-05-07T06:53:04.352Z,3.05
2018-05-07T06:55:32.515Z,2.30
2018-05-07T06:58:00.690Z,3.03
2018-05-07T07:00:28.867Z,3.08
2018-05-07T07:02:57.368Z,4.07
2018-05-07T07:05:32.219Z,2.67
2018-05-07T07:08:03.751Z,3.12
2018-05-07T07:10:36.272Z,2.78
2018-05-07T07:13:04.436Z,2.42
2018-05-07T07:15:32.607Z,3.65
2018-05-07T07:18:00.797Z,2.45
2018-05-07T07:20:30.130Z,2.70
2018-05-07T07:22:58.333Z,3.15
2018-05-07T07:25:26.787Z,2.10
2018-05-07T07:27:55.372Z,2.45
2018-05-07T07:30:23.540Z,2.00
2018-05-07T07:32:51.691Z,3.80
2018-05-07T07:35:20.225Z,3.30
2018-05-07T07:37:48.390Z,2.22
2018-05-07T07:40:16.692Z,3.60
2018-05-07T07:42:44.875Z,2.90
2018-05-07T07:45:13.869Z,2.05
2018-05-07T07:47:42.097Z,2.80
2018-05-07T07:50:10.356Z,3.05
2018-05-07T07:52:38.639Z,2.75
2018-05-07T07:55:07.620Z,2.50
2018-05-07T07:57:35.761Z,2.87
2018-05-07T08:00:04.015Z,2.05
2018-05-07T08:02:32.181Z,3.50
2018-05-07T08:05:00.361Z,2.12
2018-05-07T08:07:28.557Z,2.70
2018-05-07T08:09:57.210Z,2.42
2018-05-07T08:12:25.451Z,2.08
2018-05-07T08:14:53.935Z,2.45
2018-05-07T08:17:23.097Z,2.33
2018-05-07T08:19:51.318Z,2.72
2018-05-07T08:22:19.505Z,3.00
2018-05-07T08:24:47.786Z,2.50
2018-05-07T08:27:16.144Z,2.53
2018-05-07T08:29:44.754Z,2.53
2018-05-07T08:32:14.305Z,2.50
2018-05-07T08:34:42.456Z,2.08
2018-05-07T08:37:10.643Z,3.20
2018-05-07T08:39:38.807Z,3.28
2018-05-07T08:42:08.222Z,1.80
2018-05-07T08:44:36.391Z,2.30
2018-05-07T08:47:04.542Z,2.00
2018-05-07T08:49:32.712Z,2.15
2018-05-07T08:52:00.869Z,2.00
2018-05-07T08:54:29.023Z,2.83
2018-05-07T08:56:57.181Z,2.40
2018-05-07T08:59:26.204Z,2.70
2018-05-07T09:01:54.367Z,2.10
2018-05-07T09:04:23.313Z,2.20
2018-05-07T09:06:51.488Z,2.37
2018-05-07T09:09:19.748Z,2.03
2018-05-07T09:11:47.929Z,1.98
2018-05-07T09:14:16.263Z,2.25
2018-05-07T09:19:19.716Z,2.20
2018-05-07T09:21:47.882Z,2.40
2018-05-07T09:24:17.500Z,2.33
2018-05-07T09:26:45.661Z,1.90
2018-05-07T09:29:13.972Z,2.33
2018-05-07T09:31:42.140Z,2.28
2018-05-07T09:34:10.308Z,2.72
2018-05-07T09:36:38.461Z,2.00
2018-05-07T09:39:11.117Z,2.20
2018-05-07T09:41:41.027Z,1.90
2018-05-07T09:44:09.949Z,2.50
2018-05-07T09:46:38.116Z,2.10
2018-05-07T09:49:10.178Z,2.30
2018-05-07T09:51:38.366Z,1.60
2018-05-07T09:54:06.529Z,1.83
2018-05-07T09:56:46.700Z,3.40
2018-05-07T09:59:14.996Z,2.23
2018-05-07T10:01:43.160Z,2.33
2018-05-07T10:04:11.331Z,1.93
2018-05-07T10:06:39.492Z,2.00
2018-05-07T10:09:07.659Z,2.43
2018-05-07T10:11:35.841Z,2.67
2018-05-07T10:14:04.009Z,1.90
2018-05-07T10:16:32.258Z,2.03
2018-05-07T10:19:00.572Z,1.87
2018-05-07T10:21:28.731Z,2.60
2018-05-07T10:23:56.904Z,2.03
2018-05-07T10:26:25.094Z,1.60
2018-05-07T10:28:53.270Z,1.93
2018-05-07T10:31:21.429Z,1.70
2018-05-07T10:33:49.598Z,1.57
2018-05-07T10:36:17.793Z,2.50
2018-05-07T10:38:45.954Z,2.37
2018-05-07T10:41:14.148Z,2.90
2018-05-07T10:43:42.312Z,1.70
2018-05-07T10:46:10.573Z,1.83
2018-05-07T10:48:38.752Z,1.50
2018-05-07T10:51:06.935Z,1.60
2018-05-07T10:53:35.103Z,2.23
2018-05-07T10:56:03.279Z,2.00
2018-05-07T10:58:31.440Z,1.80
2018-05-07T11:00:59.598Z,1.70
2018-05-07T11:03:27.771Z,2.30
2018-05-07T11:05:55.950Z,1.80
2018-05-07T11:08:24.509Z,2.00
2018-05-07T11:10:53.996Z,2.03
2018-05-07T11:13:22.175Z,2.53
2018-05-07T11:15:52.914Z,2.00
2018-05-07T11:18:21.089Z,1.60
2018-05-07T11:20:49.311Z,1.97
2018-05-07T11:23:17.506Z,1.80
2018-05-07T11:25:45.694Z,1.57
2018-05-07T11:28:14.820Z,2.07
2018-05-07T11:30:43.861Z,2.50
2018-05-07T11:33:12.078Z,1.40
2018-05-07T11:35:41.116Z,2.00
2018-05-07T11:38:09.286Z,1.60
2018-05-07T11:40:37.570Z,1.67
2018-05-07T11:43:05.747Z,1.77
2018-05-07T11:45:33.917Z,1.63
2018-05-07T11:48:02.097Z,1.53
2018-05-07T11:50:30.255Z,1.43
2018-05-07T11:52:58.420Z,1.70
2018-05-07T11:55:27.820Z,1.53
2018-05-07T11:57:59.310Z,1.77
2018-05-07T12:00:28.628Z,1.30
2018-05-07T12:02:57.775Z,1.50
2018-05-07T12:05:25.960Z,1.90
2018-05-07T12:07:54.133Z,1.27
2018-05-07T12:10:22.462Z,1.83
2018-05-07T12:12:50.623Z,1.93
2018-05-07T12:15:18.775Z,1.30
2018-05-07T12:17:46.927Z,1.33
2018-05-07T12:20:15.097Z,1.37
2018-05-07T12:22:43.271Z,1.70
2018-05-07T12:25:11.419Z,1.77
2018-05-07T12:27:39.586Z,1.60
2018-05-07T12:30:07.808Z,1.40
2018-05-07T12:32:36.687Z,1.20
2018-05-07T12:35:05.256Z,1.70
2018-05-07T12:37:33.867Z,1.60
2018-05-07T12:40:02.137Z,1.20
2018-05-07T12:42:30.290Z,1.50
2018-05-07T12:44:59.948Z,2.80
2018-05-07T12:47:28.768Z,1.30
2018-05-07T12:49:57.933Z,1.63
2018-05-07T12:52:26.118Z,1.10
2018-05-07T12:54:54.281Z,1.30
2018-05-07T12:57:23.597Z,1.93
2018-05-07T12:59:52.986Z,1.40
2018-05-07T13:02:22.338Z,0.90
2018-05-07T13:04:50.640Z,1.90
2018-05-07T13:07:19.379Z,1.67
2018-05-07T13:09:47.592Z,1.47
2018-05-07T13:12:16.540Z,1.97
2018-05-07T13:14:44.745Z,1.10
2018-05-07T13:17:15.268Z,1.13
2018-05-07T13:19:45.356Z,2.03
2018-05-07T13:22:13.545Z,1.40
2018-05-07T13:24:41.705Z,1.77
2018-05-07T13:27:09.859Z,1.43
2018-05-07T13:29:38.135Z,1.33
2018-05-07T13:32:06.271Z,1.30
2018-05-07T13:34:35.192Z,0.90
2018-05-07T13:37:03.357Z,1.20
2018-05-07T13:39:31.630Z,1.27
2018-05-07T13:42:00.579Z,1.27
2018-05-07T13:44:28.732Z,1.40
2018-05-07T13:46:57.736Z,1.20
2018-05-07T13:49:26.008Z,1.43
2018-05-07T13:51:54.984Z,1.63
2018-05-07T13:54:23.131Z,1.73
2018-05-07T13:56:51.321Z,1.33
2018-05-07T13:59:19.488Z,1.33
2018-05-07T14:01:47.749Z,1.20
2018-05-07T14:04:16.662Z,1.20
2018-05-07T14:06:45.586Z,1.70
2018-05-07T14:09:13.812Z,1.10
2018-05-07T14:11:41.954Z,1.30
2018-05-07T14:14:10.103Z,1.37
2018-05-07T14:16:38.305Z,1.20
2018-05-07T14:19:08.205Z,1.53
2018-05-07T14:21:36.369Z,1.53
2018-05-07T14:24:04.598Z,2.33
2018-05-07T14:26:32.752Z,2.70
2018-05-07T14:29:05.553Z,2.77
2018-05-07T14:31:33.872Z,1.40
2018-05-07T14:34:02.046Z,2.07
2018-05-07T14:36:31.058Z,1.60
2018-05-07T14:39:02.772Z,1.83
2018-05-07T14:41:31.338Z,1.47
2018-05-07T14:44:00.262Z,1.53
2018-05-07T14:46:29.291Z,1.47
2018-05-07T14:49:01.193Z,1.67
2018-05-07T14:51:29.352Z,2.53
2018-05-07T14:53:58.359Z,1.47
2018-05-07T14:56:26.570Z,1.57
2018-05-07T14:58:58.223Z,1.20
2018-05-07T15:01:26.614Z,1.67
2018-05-07T15:03:56.367Z,1.30
2018-05-07T15:06:24.539Z,1.57
2018-05-07T15:08:53.623Z,1.63
2018-05-07T15:11:21.743Z,1.50
2018-05-07T15:13:49.895Z,1.60
2018-05-07T15:16:18.966Z,1.83
2018-05-07T15:18:47.139Z,1.60
2018-05-07T15:21:16.228Z,1.47
2018-05-07T15:23:44.776Z,1.30
2018-05-07T15:26:14.303Z,1.50
2018-05-07T15:28:42.962Z,1.40
2018-05-07T15:31:12.650Z,1.60
2018-05-07T15:33:40.812Z,2.37
2018-05-07T15:36:08.980Z,1.37
2018-05-07T15:38:37.880Z,1.97
2018-05-07T15:41:06.134Z,1.60
2018-05-07T15:43:34.305Z,1.77
2018-05-07T15:46:02.546Z,3.13
2018-05-07T15:48:31.151Z,1.63
2018-05-07T15:51:00.091Z,1.43
2018-05-07T15:53:28.710Z,1.40
2018-05-07T15:55:56.911Z,1.70
2018-05-07T15:58:25.895Z,1.40
2018-05-07T16:00:54.096Z,1.23
2018-05-07T16:03:22.410Z,2.17
2018-05-07T16:05:51.562Z,1.80
2018-05-07T16:08:20.205Z,1.73
2018-05-07T16:10:48.443Z,1.47
2018-05-07T16:13:17.363Z,2.27
2018-05-07T16:15:45.512Z,2.17
2018-05-07T16:18:13.722Z,1.83
2018-05-07T16:20:42.039Z,2.27
2018-05-07T16:23:10.162Z,2.00
2018-05-07T16:25:38.284Z,1.95
2018-05-07T16:28:06.517Z,1.97
2018-05-07T16:30:35.666Z,2.00
2018-05-07T16:33:04.617Z,1.60
2018-05-07T16:35:32.837Z,1.60
2018-05-07T16:38:01.042Z,1.60
2018-05-07T16:40:30.243Z,1.60
2018-05-07T16:42:58.399Z,2.93
2018-05-07T16:45:26.564Z,1.90
2018-05-07T16:47:54.750Z,2.10
2018-05-07T16:50:22.892Z,1.93
2018-05-07T16:52:51.067Z,2.00
2018-05-07T16:55:20.870Z,2.70
2018-05-07T16:57:49.035Z,1.80
2018-05-07T17:00:17.659Z,2.60
2018-05-07T17:02:45.828Z,1.97
2018-05-07T17:05:13.982Z,2.10
2018-05-07T17:07:42.171Z,2.03
2018-05-07T17:10:12.269Z,1.83
2018-05-07T17:12:40.427Z,2.90
2018-05-07T17:15:08.595Z,1.97
2018-05-07T17:17:36.763Z,2.20
2018-05-07T17:20:04.963Z,2.30
2018-05-07T17:22:33.125Z,1.57
2018-05-07T17:25:01.284Z,2.10
2018-05-07T17:27:29.529Z,1.87
2018-05-07T17:29:57.824Z,2.10
2018-05-07T17:32:27.579Z,2.10
2018-05-07T17:34:55.722Z,1.80
2018-05-07T17:37:23.867Z,2.00
2018-05-07T17:39:52.135Z,2.07
2018-05-07T17:42:20.345Z,2.40
2018-05-07T17:45:00.199Z,2.00
2018-05-07T17:47:40.389Z,2.67
2018-05-07T17:50:08.592Z,2.50
2018-05-07T17:52:36.760Z,2.40
2018-05-07T17:55:04.916Z,3.00
2018-05-07T17:57:34.723Z,2.20
2018-05-07T18:00:03.788Z,2.20
2018-05-07T18:02:31.981Z,2.30
2018-05-07T18:05:00.194Z,3.20
2018-05-07T18:07:29.276Z,3.17
2018-05-07T18:09:57.472Z,2.30
2018-05-07T18:12:25.651Z,2.83
2018-05-07T18:14:53.842Z,2.40
2018-05-07T18:17:23.333Z,2.43
2018-05-07T18:19:51.668Z,2.27
2018-05-07T18:22:19.865Z,2.30
2018-05-07T18:24:48.027Z,1.80
2018-05-07T18:27:16.961Z,2.77
2018-05-07T18:29:48.408Z,2.63
2018-05-07T18:32:53.428Z,3.20
2018-05-07T18:35:22.342Z,2.60
2018-05-07T18:37:51.191Z,2.73
2018-05-07T18:40:21.164Z,2.67
2018-05-07T18:42:49.312Z,3.33
2018-05-07T18:45:18.020Z,2.80
2018-05-07T18:47:47.763Z,2.60
2018-05-07T18:50:16.783Z,2.57
2018-05-07T18:52:44.949Z,2.70
2018-05-07T18:55:13.893Z,2.80
2018-05-07T18:57:43.251Z,2.40
2018-05-07T19:00:12.373Z,2.30
2018-05-07T19:02:40.553Z,2.60
2018-05-07T19:05:08.903Z,2.50
2018-05-07T19:07:37.734Z,4.43
2018-05-07T19:10:05.912Z,2.75
2018-05-07T19:12:34.076Z,3.00
2018-05-07T19:15:02.246Z,3.85
2018-05-07T19:17:31.361Z,3.90
2018-05-07T19:20:00.605Z,2.57
2018-05-07T19:22:29.594Z,2.55
2018-05-07T19:24:57.751Z,2.58
2018-05-07T19:27:25.917Z,2.53
2018-05-07T19:29:54.196Z,2.70
2018-05-07T19:32:23.842Z,2.60
2018-05-07T19:34:52.662Z,3.15
2018-05-07T19:37:20.816Z,2.70
2018-05-07T19:39:49.073Z,2.20
2018-05-07T19:42:17.224Z,2.60
2018-05-07T19:44:46.151Z,2.47
2018-05-07T19:47:14.322Z,3.00
2018-05-07T19:49:42.599Z,2.62
2018-05-07T19:52:10.887Z,3.55
2018-05-07T19:54:40.017Z,2.62
2018-05-07T19:57:08.184Z,2.55
2018-05-07T19:59:36.419Z,2.85
2018-05-07T20:02:04.662Z,2.28
2018-05-07T20:04:33.625Z,2.85
2018-05-07T20:07:01.817Z,2.33
2018-05-07T20:09:30.062Z,2.87
2018-05-07T20:11:58.224Z,2.95
2018-05-07T20:14:26.444Z,3.05
2018-05-07T20:16:54.601Z,2.50
2018-05-07T20:19:22.766Z,2.95
2018-05-07T20:21:50.977Z,3.10
2018-05-07T20:24:19.806Z,2.75
2018-05-07T20:26:49.083Z,4.35
2018-05-07T20:29:18.103Z,2.55
2018-05-07T20:31:46.689Z,2.37
2018-05-07T20:34:14.958Z,2.55
2018-05-07T20:36:43.397Z,2.92
2018-05-07T20:39:12.637Z,2.42
2018-05-07T20:41:40.813Z,2.45
2018-05-07T20:44:09.035Z,3.05
2018-05-07T20:46:37.674Z,2.90
2018-05-07T20:49:06.359Z,2.80
2018-05-07T20:51:34.668Z,2.85
2018-05-07T20:54:03.253Z,2.75
2018-05-07T20:56:31.505Z,2.47
2018-05-07T20:59:00.526Z,2.28
2018-05-07T21:01:28.815Z,2.42
2018-05-07T21:03:57.065Z,2.55
2018-05-07T21:06:25.217Z,3.12
2018-05-07T21:08:53.682Z,2.92
2018-05-07T21:11:22.614Z,3.42
2018-05-07T21:13:51.729Z,2.80
2018-05-07T21:16:19.892Z,4.78
2018-05-07T21:18:49.498Z,3.28
2018-05-07T21:21:18.887Z,2.78
2018-05-07T21:23:47.034Z,3.65
2018-05-07T21:26:19.180Z,3.08
2018-05-07T21:28:47.349Z,2.95
2018-05-07T21:31:15.664Z,3.15
2018-05-07T21:33:43.980Z,2.37
2018-05-07T21:36:12.340Z,3.08
2018-05-07T21:38:40.489Z,2.55
2018-05-07T21:41:08.650Z,3.20
2018-05-07T21:43:36.857Z,2.83
2018-05-07T21:46:09.860Z,3.05
2018-05-07T21:48:38.025Z,3.08
2018-05-07T21:51:07.726Z,2.70
2018-05-07T21:53:35.893Z,2.67
2018-05-07T21:56:04.072Z,3.92
2018-05-07T21:58:32.320Z,3.15
2018-05-07T22:01:00.548Z,3.65
2018-05-07T22:03:28.716Z,2.90
2018-05-07T22:05:56.909Z,2.65
2018-05-07T22:08:25.911Z,3.28
2018-05-07T22:10:54.844Z,4.10
2018-05-07T22:13:23.579Z,2.70
2018-05-07T22:15:51.778Z,3.10
2018-05-07T22:18:21.089Z,2.80
2018-05-07T22:20:50.207Z,2.80
2018-05-07T22:23:18.377Z,3.12
2018-05-07T22:25:48.199Z,3.80
2018-05-07T22:28:17.176Z,3.83
2018-05-07T22:30:45.375Z,2.95
2018-05-07T22:33:13.526Z,3.50
2018-05-07T22:35:41.673Z,3.50
2018-05-07T22:38:10.596Z,3.87
2018-05-07T22:40:38.913Z,2.90
2018-05-07T22:43:07.054Z,3.55
2018-05-07T22:45:35.215Z,3.83
2018-05-07T22:48:03.791Z,3.20
2018-05-07T22:50:32.976Z,4.00
2018-05-07T22:53:01.168Z,3.85
2018-05-07T22:55:29.472Z,3.65
2018-05-07T22:57:57.685Z,3.25
2018-05-07T23:00:25.963Z,3.37
2018-05-07T23:02:54.422Z,3.05
2018-05-07T23:05:22.576Z,3.65
2018-05-07T23:07:50.740Z,3.03
2018-05-07T23:10:19.010Z,4.43
2018-05-07T23:12:47.167Z,3.58
2018-05-07T23:15:15.469Z,3.60
2018-05-07T23:17:43.636Z,4.37
2018-05-07T23:20:11.896Z,3.95
2018-05-07T23:22:40.047Z,4.30
2018-05-07T23:25:09.560Z,3.47
2018-05-07T23:27:37.646Z,3.85
2018-05-07T23:30:07.009Z,4.15
2018-05-07T23:32:41.062Z,3.30
2018-05-07T23:35:09.360Z,4.40
2018-05-07T23:37:37.534Z,3.67
2018-05-07T23:40:05.713Z,3.90
2018-05-07T23:42:33.866Z,3.72
2018-05-07T23:45:02.280Z,3.42
2018-05-07T23:47:30.434Z,4.05
2018-05-07T23:49:58.710Z,3.90
2018-05-07T23:52:26.868Z,3.97
2018-05-07T23:54:55.129Z,5.20
2018-05-07T23:57:23.289Z,5.18
2018-05-07T23:59:52.311Z,3.65
